Time;durP1;ratioP1;P1;durP2;ratioP2;P2;SDS_P1;SDS_P2;PMS_P1;PMS_P2;Temp;Humidity;BMP_temperature;BMP_pressure;BME280_temperature;BME280_humidity;BME280_pressure;Samples;Min_cycle;Max_cycle;Signal;HPM_P1;HPM_P2
2023/12/16 00:00:23;;;;;;;14.13;9.57;;;;;;;30.04;50.37;101038.56;4940932;28;70142;-38
2023/12/16 00:02:53;;;;;;;19.50;9.73;;;;;;;30.15;50.73;101062.25;4937968;28;66575;-38
2023/12/16 00:05:23;;;;;;;18.88;10.48;;;;;;;30.17;50.85;101071.00;4969124;28;70547;-38
2023/12/16 00:07:53;;;;;;;23.40;12.07;;;;;;;30.24;52.49;101074.53;4942942;28;65263;-38
2023/12/16 00:10:24;;;;;;;22.63;13.50;;;;;;;30.23;53.65;101063.94;4947485;28;68401;-38
2023/12/16 00:12:55;;;;;;;36.05;14.30;;;;;;;30.34;54.00;101078.66;4958576;28;66361;-39
2023/12/16 00:15:25;;;;;;;25.00;14.07;;;;;;;30.32;55.04;101070.78;4960585;28;70893;-38
2023/12/16 00:17:55;;;;;;;30.48;16.30;;;;;;;30.40;55.44;101070.56;4958985;28;65949;-38
2023/12/16 00:20:25;;;;;;;30.10;16.73;;;;;;;30.47;55.42;101075.94;4958982;28;69685;-38
2023/12/16 00:22:56;;;;;;;41.40;25.50;;;;;;;30.48;56.71;101078.44;4946588;28;66632;-37
2023/12/16 00:25:26;;;;;;;66.55;35.60;;;;;;;30.61;57.31;101087.56;4968518;28;70833;-38
2023/12/16 00:27:56;;;;;;;50.85;27.23;;;;;;;30.62;57.40;101081.94;4966628;28;66728;-38
2023/12/16 00:30:26;;;;;;;58.75;28.58;;;;;;;30.60;57.73;101070.47;4972601;28;69933;-38
2023/12/16 00:32:58;;;;;;;63.53;27.50;;;;;;;30.70;58.90;101095.25;4959464;28;66414;-39
2023/12/16 00:35:29;;;;;;;66.60;34.33;;;;;;;30.64;58.43;101076.28;4968076;28;70763;-38
2023/12/16 00:37:59;;;;;;;57.38;27.20;;;;;;;30.81;58.63;101096.44;4964910;28;66169;-38
2023/12/16 00:40:29;;;;;;;49.72;24.92;;;;;;;30.82;59.70;101100.84;4929558;28;70172;-39
2023/12/16 00:43:00;;;;;;;35.20;22.75;;;;;;;30.78;59.61;101106.88;4944584;28;66521;-39
2023/12/16 00:45:30;;;;;;;40.55;21.38;;;;;;;30.78;60.26;101098.72;4959518;28;70680;-38
2023/12/16 00:48:00;;;;;;;35.85;20.20;;;;;;;30.83;60.19;101112.50;4979642;28;65185;-38
2023/12/16 00:50:31;;;;;;;37.85;20.98;;;;;;;30.87;60.37;101114.56;4974441;28;70183;-38
2023/12/16 00:53:01;;;;;;;31.30;18.75;;;;;;;30.85;60.54;101115.84;4947999;28;65970;-38
2023/12/16 00:55:31;;;;;;;31.15;19.67;;;;;;;30.79;60.08;101108.53;4977242;28;69478;-38
2023/12/16 00:58:01;;;;;;;31.73;19.52;;;;;;;30.84;60.08;101116.84;4958886;28;67023;-39
2023/12/16 01:00:31;;;;;;;32.40;18.27;;;;;;;30.91;60.25;101120.38;4963336;28;71070;-39
2023/12/16 01:03:01;;;;;;;28.08;18.35;;;;;;;30.93;60.72;101121.00;4969874;28;66248;-38
2023/12/16 01:05:31;;;;;;;24.65;17.27;;;;;;;30.62;60.63;101079.22;4950721;28;70733;-38
2023/12/16 01:08:01;;;;;;;32.30;17.42;;;;;;;30.96;61.00;101134.13;4962742;28;66901;-40
2023/12/16 01:10:31;;;;;;;32.35;17.92;;;;;;;30.90;61.15;101124.97;4965373;28;70141;-38
2023/12/16 01:13:02;;;;;;;35.00;18.80;;;;;;;31.00;60.73;101135.34;4961346;28;65865;-37
2023/12/16 01:15:32;;;;;;;28.05;17.52;;;;;;;30.97;61.27;101133.06;4934534;28;70803;-38
2023/12/16 01:18:02;;;;;;;22.98;16.48;;;;;;;30.98;61.55;101137.47;4970266;28;66153;-38
2023/12/16 01:20:32;;;;;;;26.42;16.60;;;;;;;30.98;61.25;101134.75;4944177;28;70620;-38
2023/12/16 01:23:02;;;;;;;29.63;17.02;;;;;;;31.06;61.06;101142.59;4967244;28;66063;-38
2023/12/16 01:25:32;;;;;;;21.67;15.45;;;;;;;31.10;59.88;101141.13;4968160;28;69648;-38
2023/12/16 01:28:02;;;;;;;17.60;13.77;;;;;;;31.12;59.69;101141.75;4971027;28;66708;-38
2023/12/16 01:30:32;;;;;;;23.50;14.82;;;;;;;31.14;59.16;101145.06;4944466;28;69409;-39
2023/12/16 01:33:03;;;;;;;16.58;14.57;;;;;;;31.11;59.10;101140.09;4959962;28;66002;-38
2023/12/16 01:35:33;;;;;;;24.73;14.18;;;;;;;31.14;59.13;101136.94;4941662;28;70770;-38
2023/12/16 01:38:03;;;;;;;20.02;15.23;;;;;;;31.20;59.30;101150.69;4973261;28;66844;-38
2023/12/16 01:40:33;;;;;;;17.35;15.05;;;;;;;31.24;58.82;101151.91;4943702;28;71170;-38
2023/12/16 01:43:08;;;;;;;19.88;15.50;;;;;;;31.24;58.91;101157.34;4973168;28;66841;-38
2023/12/16 01:45:38;;;;;;;18.92;15.27;;;;;;;31.26;58.83;101149.81;4964317;28;69380;-38
2023/12/16 01:48:12;;;;;;;26.02;15.52;;;;;;;30.83;58.94;101080.81;4968679;28;65995;-38
2023/12/16 01:50:42;;;;;;;20.35;14.88;;;;;;;31.22;59.11;101143.16;4957668;28;70682;-38
2023/12/16 01:53:12;;;;;;;21.73;15.02;;;;;;;31.31;59.08;101158.13;4971991;28;66368;-38
2023/12/16 01:55:43;;;;;;;20.50;15.90;;;;;;;31.22;59.08;101135.03;4965501;28;70473;-37
2023/12/16 01:58:12;;;;;;;18.02;14.85;;;;;;;31.29;59.11;101142.09;4965370;28;66053;-38
2023/12/16 02:00:44;;;;;;;19.45;15.98;;;;;;;31.34;59.13;101152.25;4967131;28;70230;-37
2023/12/16 02:03:15;;;;;;;;;;;;;;;31.00;60.64;101157.00;4960497;28;65967;-38
2023/12/16 02:05:45;;;;;;;23.17;15.25;;;;;;;31.32;59.37;101155.22;4964617;28;70334;-38
2023/12/16 02:08:15;;;;;;;19.55;15.43;;;;;;;31.36;59.32;101150.22;4962957;28;66577;-38
2023/12/16 02:10:45;;;;;;;17.17;15.20;;;;;;;31.38;59.37;101153.53;4968317;28;70297;-38
2023/12/16 02:13:18;;;;;;;19.92;15.48;;;;;;;31.42;59.55;101159.34;4975301;28;66640;-38
2023/12/16 02:15:48;;;;;;;19.70;15.10;;;;;;;31.44;59.54;101157.25;4962463;28;70056;-39
2023/12/16 02:18:18;;;;;;;17.13;14.70;;;;;;;31.45;59.60;101162.44;4944494;28;66088;-38
2023/12/16 02:20:51;;;;;;;23.80;15.63;;;;;;;31.45;59.65;101165.16;4966138;28;70047;-39
2023/12/16 02:23:20;;;;;;;18.13;15.05;;;;;;;31.48;59.72;101158.47;4967545;28;65998;-38
2023/12/16 02:25:51;;;;;;;19.48;15.57;;;;;;;31.47;59.61;101154.94;4965714;28;70020;-37
2023/12/16 02:28:21;;;;;;;18.77;15.68;;;;;;;31.46;59.85;101158.72;4965965;28;66672;-38
2023/12/16 02:30:51;;;;;;;17.50;15.52;;;;;;;31.53;60.09;101156.78;4966764;28;70741;-38
2023/12/16 02:33:21;;;;;;;23.98;16.58;;;;;;;31.55;59.80;101159.28;4959840;28;66924;-38
2023/12/16 02:35:51;;;;;;;17.35;15.55;;;;;;;31.57;59.79;101151.75;4945464;28;70728;-38
2023/12/16 02:38:21;;;;;;;22.85;16.73;;;;;;;31.52;59.55;101138.03;4963651;28;65944;-38
2023/12/16 02:40:51;;;;;;;18.75;15.68;;;;;;;31.60;60.03;101144.00;4946751;28;69873;-38
2023/12/16 02:43:21;;;;;;;22.70;17.73;;;;;;;31.46;61.87;101145.16;4966177;28;66723;-38
2023/12/16 02:45:51;;;;;;;33.15;20.60;;;;;;;31.41;64.76;101146.84;4947235;28;70169;-38
2023/12/16 02:48:21;;;;;;;34.30;20.70;;;;;;;31.37;63.05;101143.72;4962880;28;66555;-37
2023/12/16 02:50:51;;;;;;;30.20;19.50;;;;;;;31.39;63.51;101161.44;4972543;28;70488;-38
2023/12/16 02:53:21;;;;;;;29.13;19.05;;;;;;;31.27;63.01;101124.38;4971151;28;66096;-37
2023/12/16 02:55:51;;;;;;;28.00;18.52;;;;;;;31.50;62.82;101146.38;4945792;28;70430;-38
2023/12/16 02:58:21;;;;;;;26.15;17.27;;;;;;;31.48;62.83;101151.19;4972974;28;65900;-38
2023/12/16 03:00:51;;;;;;;24.25;17.50;;;;;;;31.49;62.71;101144.72;4948419;28;68967;-37
2023/12/16 03:03:21;;;;;;;25.95;17.27;;;;;;;31.46;62.60;101142.44;4965385;28;66145;-38
2023/12/16 03:05:51;;;;;;;23.27;16.75;;;;;;;31.48;62.67;101159.31;4948324;28;70451;-38
2023/12/16 03:08:21;;;;;;;28.77;16.98;;;;;;;31.13;63.36;101100.06;4935114;28;66404;-39
2023/12/16 03:10:53;;;;;;;21.40;16.13;;;;;;;31.47;63.13;101145.97;4964520;28;70232;-39
2023/12/16 03:13:23;;;;;;;18.63;16.55;;;;;;;31.53;63.14;101155.94;4956912;28;65846;-39
2023/12/16 03:15:54;;;;;;;19.58;15.52;;;;;;;31.52;62.89;101146.97;4971486;28;69344;-38
2023/12/16 03:18:24;;;;;;;17.02;14.98;;;;;;;31.51;62.92;101131.78;4972024;28;66713;-37
2023/12/16 03:20:54;;;;;;;19.33;16.33;;;;;;;31.59;63.04;101136.09;4972476;28;70361;-38
2023/12/16 03:23:24;;;;;;;21.90;15.70;;;;;;;31.60;63.20;101145.91;4975498;28;65824;-37
2023/12/16 03:25:55;;;;;;;20.75;15.85;;;;;;;31.46;64.26;101128.88;4966126;28;70430;-37
2023/12/16 03:28:25;;;;;;;21.35;15.27;;;;;;;31.55;65.35;101138.41;4966890;28;65210;-38
2023/12/16 03:30:55;;;;;;;15.48;13.25;;;;;;;31.32;63.20;101075.78;4957205;28;70215;-38
2023/12/16 03:33:25;;;;;;;17.13;15.38;;;;;;;31.63;63.17;101122.94;4947812;28;66119;-37
2023/12/16 03:35:56;;;;;;;17.45;14.15;;;;;;;31.64;63.30;101124.59;4950611;28;69685;-38
2023/12/16 03:38:26;;;;;;;17.02;14.23;;;;;;;31.67;63.03;101113.28;4967849;28;66615;-38
2023/12/16 03:40:56;;;;;;;18.85;14.65;;;;;;;31.72;63.30;101119.72;4953241;28;70508;-37
2023/12/16 03:43:26;;;;;;;16.80;15.10;;;;;;;31.75;63.46;101122.00;4974723;28;66661;-37
2023/12/16 03:45:56;;;;;;;20.98;14.90;;;;;;;31.77;63.21;101121.78;4958650;28;70180;-37
2023/12/16 03:48:26;;;;;;;20.70;16.13;;;;;;;31.76;63.56;101122.81;4964439;28;66949;-38
2023/12/16 03:50:56;;;;;;;23.80;15.50;;;;;;;31.76;64.35;101122.81;4974330;28;70523;-38
2023/12/16 03:53:26;;;;;;;24.42;17.67;;;;;;;31.75;63.82;101107.59;4963488;28;65571;-38
2023/12/16 03:55:56;;;;;;;20.42;15.88;;;;;;;31.78;64.38;101109.88;4949605;28;70496;-38
2023/12/16 03:58:26;;;;;;;23.15;17.35;;;;;;;31.81;65.42;101112.13;4970278;28;66562;-38
2023/12/16 04:00:56;;;;;;;19.90;15.00;;;;;;;31.80;65.01;101113.19;4965230;28;70155;-38
2023/12/16 04:03:26;;;;;;;26.42;15.00;;;;;;;31.81;64.63;101104.81;4968127;28;65196;-38
2023/12/16 04:05:57;;;;;;;19.52;14.48;;;;;;;31.89;64.53;101103.72;4938246;28;69961;-38
2023/12/16 04:08:28;;;;;;;23.58;13.90;;;;;;;31.90;64.32;101090.97;4967906;28;66732;-38
2023/12/16 04:10:59;;;;;;;22.10;14.45;;;;;;;31.92;64.37;101092.47;4964603;28;70827;-38
2023/12/16 04:13:29;;;;;;;18.50;13.55;;;;;;;31.82;64.26;101063.09;4941257;28;65956;-38
2023/12/16 04:15:59;;;;;;;16.33;12.68;;;;;;;31.99;63.78;101089.69;4951033;28;70172;-38
2023/12/16 04:18:31;;;;;;;20.55;13.25;;;;;;;31.80;65.13;101057.06;4956457;28;66380;-38
2023/12/16 04:21:01;;;;;;;14.73;13.02;;;;;;;32.01;63.94;101080.28;4952699;28;70086;-38
2023/12/16 04:23:31;;;;;;;14.77;11.30;;;;;;;32.01;64.23;101072.16;4962972;28;65980;-38
2023/12/16 04:26:01;;;;;;;15.95;11.02;;;;;;;32.04;64.40;101070.88;4967777;28;70273;-39
2023/12/16 04:28:37;;;;;;;16.20;10.85;;;;;;;32.15;63.68;101069.28;4947908;28;66505;-38
2023/12/16 04:31:13;;;;;;;14.25;10.63;;;;;;;32.08;66.26;101054.97;4957693;28;70517;-39
2023/12/16 04:33:48;;;;;;;15.65;11.50;;;;;;;32.09;65.88;101048.47;4963512;28;66428;-43
2023/12/16 04:36:18;;;;;;;17.02;11.93;;;;;;;32.16;64.04;101035.69;4933887;28;70041;-38
2023/12/16 04:38:48;;;;;;;12.38;11.27;;;;;;;32.14;64.53;101032.34;4963660;28;66808;-39
2023/12/16 04:41:18;;;;;;;19.25;11.05;;;;;;;32.16;63.84;101027.53;4966111;28;70411;-38
2023/12/16 04:43:48;;;;;;;13.30;10.35;;;;;;;32.26;63.35;101019.66;4942660;28;66592;-37
2023/12/16 04:46:21;;;;;;;12.52;10.95;;;;;;;32.37;63.04;101021.63;4970988;28;70476;-38
2023/12/16 04:48:51;;;;;;;20.15;10.35;;;;;;;32.44;62.92;101016.97;4962572;28;66894;-38
2023/12/16 04:51:21;;;;;;;10.35;9.20;;;;;;;32.51;62.71;101010.63;4966299;28;69452;-39
2023/12/16 04:53:52;;;;;;;13.23;9.20;;;;;;;32.54;62.49;101010.19;4961815;28;66010;-38
2023/12/16 04:56:23;;;;;;;12.02;8.73;;;;;;;32.47;62.59;100992.09;4955522;28;68528;-38
2023/12/16 04:58:53;;;;;;;9.50;8.68;;;;;;;32.55;62.55;100996.38;4960483;28;66890;-38
2023/12/16 05:01:23;;;;;;;12.18;9.05;;;;;;;32.64;62.13;100996.91;4966903;28;70370;-37
2023/12/16 05:03:54;;;;;;;8.88;8.00;;;;;;;32.65;62.31;100987.69;4969033;28;65924;-38
2023/12/16 05:06:24;;;;;;;15.03;9.83;;;;;;;32.61;62.14;100978.34;4948384;28;68427;-38
2023/12/16 05:08:54;;;;;;;11.98;10.02;;;;;;;32.70;62.09;100966.91;4965664;28;65668;-38
2023/12/16 05:11:24;;;;;;;11.43;9.27;;;;;;;32.74;61.95;100961.88;4950019;28;70089;-38
2023/12/16 05:13:55;;;;;;;10.25;9.32;;;;;;;32.74;62.06;100956.44;4967274;28;66584;-38
2023/12/16 05:16:26;;;;;;;13.65;9.13;;;;;;;32.78;62.14;100945.94;4965760;28;70882;-37
2023/12/16 05:18:56;;;;;;;12.90;11.50;;;;;;;32.77;61.80;100945.09;4955460;28;65503;-42
2023/12/16 05:21:26;;;;;;;11.63;10.43;;;;;;;32.80;61.79;100939.22;4972390;28;70044;-38
2023/12/16 05:23:56;;;;;;;18.73;10.65;;;;;;;32.78;61.98;100937.78;4971118;28;66389;-38
2023/12/16 05:26:26;;;;;;;11.85;10.63;;;;;;;32.79;61.79;100926.69;4979648;28;69795;-38
2023/12/16 05:28:56;;;;;;;13.82;10.57;;;;;;;32.86;61.49;100927.41;4967293;28;66622;-38
2023/12/16 05:31:26;;;;;;;10.40;9.60;;;;;;;32.87;61.48;100923.63;4971295;28;70739;-39
2023/12/16 05:33:56;;;;;;;9.90;9.02;;;;;;;32.86;61.27;100921.97;4950312;28;66225;-38
2023/12/16 05:36:26;;;;;;;13.73;9.82;;;;;;;32.87;61.12;100907.31;4966287;28;70226;-38
2023/12/16 05:38:56;;;;;;;10.20;9.30;;;;;;;32.90;61.41;100897.88;4972095;28;65273;-38
2023/12/16 05:41:26;;;;;;;9.30;8.43;;;;;;;32.87;61.24;100891.00;4949143;28;70093;-37
2023/12/16 05:43:56;;;;;;;12.38;10.68;;;;;;;32.88;60.96;100887.25;4946626;28;64614;-38
2023/12/16 05:46:26;;;;;;;11.73;9.63;;;;;;;32.93;61.30;100881.94;4951784;28;70204;-38
2023/12/16 05:48:56;;;;;;;10.13;8.63;;;;;;;32.95;61.24;100881.69;4965059;28;65707;-38
2023/12/16 05:51:27;;;;;;;12.00;8.60;;;;;;;32.96;61.24;100877.94;4947059;28;70811;-38
2023/12/16 05:53:57;;;;;;;8.77;8.13;;;;;;;32.97;61.18;100867.88;4947249;28;65829;-38
2023/12/16 05:56:27;;;;;;;11.15;8.18;;;;;;;32.96;61.17;100855.34;4975164;28;70222;-37
2023/12/16 05:58:57;;;;;;;9.98;9.07;;;;;;;32.94;61.06;100851.00;4935183;28;65284;-39
2023/12/16 06:01:27;;;;;;;11.35;8.52;;;;;;;32.98;61.08;100842.38;4949162;28;69808;-38
2023/12/16 06:03:57;;;;;;;8.32;7.72;;;;;;;32.94;61.09;100831.16;4954649;28;66038;-38
2023/12/16 06:06:27;;;;;;;8.70;7.97;;;;;;;33.03;61.16;100834.38;4970944;28;70521;-38
2023/12/16 06:08:57;;;;;;;8.07;7.28;;;;;;;33.05;61.17;100826.81;4964383;28;65679;-38
2023/12/16 06:11:28;;;;;;;8.45;7.85;;;;;;;33.05;61.21;100833.06;4968871;28;69774;-38
2023/12/16 06:13:58;;;;;;;9.77;9.00;;;;;;;33.05;60.85;100821.38;4967666;28;66465;-38
2023/12/16 06:16:28;;;;;;;9.68;8.68;;;;;;;33.08;61.15;100815.47;4951932;28;70113;-38
2023/12/16 06:18:59;;;;;;;13.02;7.90;;;;;;;33.05;60.84;100810.50;4955497;28;66259;-37
2023/12/16 06:21:30;;;;;;;7.75;7.15;;;;;;;33.10;61.15;100810.63;4951270;28;69873;-37
2023/12/16 06:24:00;;;;;;;8.15;7.55;;;;;;;33.11;61.04;100804.13;4953533;28;66521;-37
2023/12/16 06:26:30;;;;;;;8.57;7.97;;;;;;;32.94;60.80;100776.81;4957873;28;70232;-37
2023/12/16 06:29:00;;;;;;;8.50;7.65;;;;;;;33.15;61.01;100810.72;4975757;28;66930;-37
2023/12/16 06:31:30;;;;;;;7.65;7.15;;;;;;;33.11;61.09;100787.81;4968977;28;70698;-38
2023/12/16 06:33:59;;;;;;;8.55;7.75;;;;;;;33.12;61.09;100784.00;4967729;28;65418;-37
2023/12/16 06:36:30;;;;;;;8.40;7.57;;;;;;;33.10;60.91;100775.28;4967470;28;70524;-37
2023/12/16 06:39:00;;;;;;;10.93;7.20;;;;;;;33.19;60.86;100783.91;4967760;28;66425;-38
2023/12/16 06:41:31;;;;;;;7.70;7.20;;;;;;;33.11;60.86;100766.88;4967695;28;70132;-38
2023/12/16 06:44:00;;;;;;;8.05;7.28;;;;;;;33.21;61.02;100782.59;4967795;28;67198;-43
2023/12/16 06:46:30;;;;;;;8.65;7.85;;;;;;;33.16;60.68;100763.47;4953271;28;70101;-37
2023/12/16 06:49:01;;;;;;;12.25;8.27;;;;;;;33.22;60.79;100773.38;4953460;28;66682;-38
2023/12/16 06:51:31;;;;;;;9.35;8.57;;;;;;;33.18;61.42;100755.06;4976663;28;70648;-38
2023/12/16 06:54:01;;;;;;;9.32;8.65;;;;;;;33.22;60.98;100762.50;4962814;28;66587;-39
2023/12/16 06:56:32;;;;;;;8.85;8.18;;;;;;;33.25;61.01;100775.63;4973179;28;70798;-39
2023/12/16 06:59:02;;;;;;;8.80;7.83;;;;;;;33.13;61.29;100747.63;4966967;28;65584;-38
2023/12/16 07:01:32;;;;;;;9.50;8.57;;;;;;;33.26;61.00;100769.09;4966437;28;70766;-38
2023/12/16 07:04:02;;;;;;;9.98;8.20;;;;;;;33.26;61.36;100768.28;4964707;28;66542;-38
2023/12/16 07:06:33;;;;;;;8.50;7.85;;;;;;;33.25;60.74;100761.19;4950743;28;70530;-38
2023/12/16 07:09:03;;;;;;;8.88;8.15;;;;;;;33.27;61.05;100759.91;4947234;28;66100;-37
2023/12/16 07:11:35;;;;;;;9.68;8.65;;;;;;;33.24;61.13;100757.66;4966099;28;70268;-38
2023/12/16 07:14:06;;;;;;;9.82;9.05;;;;;;;33.31;60.77;100771.13;4966822;28;66565;-37
2023/12/16 07:16:36;;;;;;;10.15;9.27;;;;;;;33.31;60.70;100763.78;4966723;28;69736;-38
2023/12/16 07:19:06;;;;;;;9.30;8.60;;;;;;;33.32;60.63;100762.72;4961176;28;66464;-38
2023/12/16 07:21:42;;;;;;;11.55;9.65;;;;;;;33.33;60.60;100763.56;4961352;28;69541;-38
2023/12/16 07:24:12;;;;;;;9.82;8.55;;;;;;;33.35;59.87;100773.13;4946958;28;65611;-37
2023/12/16 07:26:42;;;;;;;10.15;9.10;;;;;;;33.00;60.41;100707.94;4967804;28;70266;-38
2023/12/16 07:29:12;;;;;;;9.85;8.85;;;;;;;33.28;60.15;100755.28;4961048;28;66097;-37
2023/12/16 07:31:47;;;;;;;9.60;9.05;;;;;;;33.34;60.38;100760.56;4967265;28;70662;-38
2023/12/16 07:34:18;;;;;;;11.57;8.88;;;;;;;33.32;60.29;100765.44;4934993;28;65806;-37
2023/12/16 07:36:48;;;;;;;15.38;10.18;;;;;;;33.40;60.32;100766.13;4961333;28;70389;-38
2023/12/16 07:39:18;;;;;;;10.93;10.02;;;;;;;33.41;60.33;100765.06;4943755;28;66316;-38
2023/12/16 07:41:48;;;;;;;11.80;10.68;;;;;;;33.27;60.23;100749.03;4966428;28;69826;-38
2023/12/16 07:44:18;;;;;;;11.35;10.45;;;;;;;33.33;60.18;100750.78;4962720;28;66782;-38
2023/12/16 07:46:48;;;;;;;11.27;10.27;;;;;;;33.36;60.07;100758.44;4965677;28;70084;-37
2023/12/16 07:49:22;;;;;;;10.77;9.88;;;;;;;33.43;60.29;100769.19;4962358;28;67539;-44
2023/12/16 07:51:54;;;;;;;11.85;10.75;;;;;;;33.45;60.10;100766.22;4964918;28;70594;-38
2023/12/16 07:54:25;;;;;;;11.80;10.77;;;;;;;33.40;60.19;100757.97;4936145;28;66119;-38
2023/12/16 07:56:55;;;;;;;12.40;11.27;;;;;;;33.46;60.20;100762.44;4945755;28;70574;-38
2023/12/16 07:59:26;;;;;;;12.30;10.80;;;;;;;33.47;60.01;100769.53;4948466;28;66105;-38
2023/12/16 08:01:57;;;;;;;11.43;10.17;;;;;;;33.38;60.12;100748.16;4964651;28;71947;-38
2023/12/16 08:04:27;;;;;;;12.83;11.73;;;;;;;33.22;60.28;100757.06;4970575;28;67444;-39
2023/12/16 08:06:58;;;;;;;13.63;11.95;;;;;;;33.11;60.83;100771.50;4960098;28;69402;-39
2023/12/16 08:09:28;;;;;;;14.68;11.93;;;;;;;33.05;60.70;100765.13;4940860;28;65348;-40
2023/12/16 08:11:58;;;;;;;13.68;12.25;;;;;;;33.04;60.97;100766.22;4952852;28;68792;-38
2023/12/16 08:14:29;;;;;;;13.20;11.68;;;;;;;32.99;61.53;100768.78;4931376;28;66830;-39
2023/12/16 08:17:00;;;;;;;13.68;12.48;;;;;;;32.80;61.43;100751.75;4969903;28;70251;-38
2023/12/16 08:19:30;;;;;;;12.07;10.93;;;;;;;33.00;61.56;100775.06;4959554;28;66687;-39
2023/12/16 08:22:00;;;;;;;12.68;11.38;;;;;;;33.00;61.21;100767.72;4963495;28;70716;-38
2023/12/16 08:24:32;;;;;;;12.52;11.32;;;;;;;33.01;61.45;100765.84;4963308;28;66734;-39
2023/12/16 08:27:02;;;;;;;;;;;;;;;32.76;63.00;100768.75;4953401;28;69807;-37
2023/12/16 08:29:31;;;;;;;12.10;10.73;;;;;;;32.67;61.38;100711.25;4963919;28;65916;-38
2023/12/16 08:32:01;;;;;;;12.40;11.25;;;;;;;32.98;61.73;100758.13;4947207;28;69596;-39
2023/12/16 08:34:33;;;;;;;12.15;10.95;;;;;;;32.97;61.91;100770.06;4958741;28;64997;-37
2023/12/16 08:37:04;;;;;;;11.65;10.50;;;;;;;32.96;62.22;100766.53;4949906;28;70415;-38
2023/12/16 08:39:34;;;;;;;11.68;10.50;;;;;;;32.65;62.01;100713.38;4946732;28;65999;-38
2023/12/16 08:42:04;;;;;;;15.00;10.98;;;;;;;33.01;62.07;100771.25;4938097;28;69310;-37
2023/12/16 08:44:35;;;;;;;12.65;11.43;;;;;;;33.03;61.72;100780.03;4963462;28;66649;-37
2023/12/16 08:47:05;;;;;;;11.77;10.75;;;;;;;33.11;61.47;100787.81;4969442;28;70375;-38
2023/12/16 08:49:35;;;;;;;14.90;10.48;;;;;;;33.12;62.08;100789.44;4968898;28;66224;-38
2023/12/16 08:52:06;;;;;;;11.43;10.40;;;;;;;33.13;61.56;100780.25;4968907;28;70271;-38
2023/12/16 08:54:39;;;;;;;14.40;10.77;;;;;;;33.05;62.02;100784.16;4955105;28;65545;-38
2023/12/16 08:57:09;;;;;;;11.00;10.10;;;;;;;32.78;61.48;100734.88;4930427;28;70173;-38
2023/12/16 08:59:39;;;;;;;10.10;9.25;;;;;;;33.21;60.83;100798.91;4970720;28;66737;-39
2023/12/16 09:02:09;;;;;;;12.45;8.07;;;;;;;33.12;60.47;100790.28;4954241;28;69548;-38
2023/12/16 09:04:40;;;;;;;8.73;7.97;;;;;;;33.16;60.15;100801.53;4970357;28;65863;-39
2023/12/16 09:07:11;;;;;;;9.43;8.05;;;;;;;33.17;59.46;100808.59;4973078;28;70715;-39
2023/12/16 09:09:41;;;;;;;7.85;7.18;;;;;;;33.15;59.88;100808.00;4956957;28;66381;-39
2023/12/16 09:12:11;;;;;;;7.93;7.32;;;;;;;33.18;60.07;100810.25;4946457;28;69957;-38
2023/12/16 09:14:42;;;;;;;7.10;6.50;;;;;;;33.10;60.07;100807.91;4975005;28;65144;-39
2023/12/16 09:17:12;;;;;;;10.27;7.22;;;;;;;32.84;60.17;100769.22;4950355;28;69156;-38
2023/12/16 09:19:42;;;;;;;12.73;6.50;;;;;;;33.22;60.11;100816.88;4962288;28;66491;-38
2023/12/16 09:22:12;;;;;;;9.93;6.30;;;;;;;33.18;60.35;100815.66;4962449;28;68970;-37
2023/12/16 09:24:42;;;;;;;8.82;6.72;;;;;;;33.15;60.73;100816.16;4966505;28;66174;-38
2023/12/16 09:27:12;;;;;;;10.18;6.60;;;;;;;33.20;60.53;100824.44;4973719;28;70192;-38
2023/12/16 09:29:42;;;;;;;10.30;7.13;;;;;;;33.18;60.46;100831.97;4946617;28;65839;-39
2023/12/16 09:32:12;;;;;;;7.20;6.70;;;;;;;33.21;60.44;100830.69;4948985;28;69732;-39
2023/12/16 09:34:42;;;;;;;6.78;6.15;;;;;;;33.18;61.40;100826.53;4949899;28;65225;-39
2023/12/16 09:37:13;;;;;;;7.25;6.40;;;;;;;33.18;61.21;100831.97;4966787;28;70683;-39
2023/12/16 09:39:43;;;;;;;7.47;6.80;;;;;;;33.18;61.44;100826.53;4954126;28;64599;-39
2023/12/16 09:42:14;;;;;;;8.35;7.30;;;;;;;33.20;62.15;100824.44;4941311;28;69087;-37
2023/12/16 09:44:49;;;;;;;8.55;7.13;;;;;;;33.00;62.02;100804.94;4947385;28;66582;-39
2023/12/16 09:47:20;;;;;;;10.82;7.43;;;;;;;33.16;63.20;100839.56;4966979;28;69471;-38
2023/12/16 09:49:51;;;;;;;7.00;6.32;;;;;;;33.06;63.16;100820.31;4975340;28;65779;-38
2023/12/16 09:52:21;;;;;;;;;;;;;;;32.90;65.35;100830.81;4948872;28;70480;-37
2023/12/16 09:54:51;;;;;;;16.88;6.90;;;;;;;33.05;65.15;100845.84;4950124;28;66256;-38
2023/12/16 09:57:24;;;;;;;10.15;7.25;;;;;;;33.05;63.65;100826.81;4970776;28;69465;-38
2023/12/16 09:59:56;;;;;;;7.43;6.38;;;;;;;32.70;63.83;100767.81;4951946;28;66454;-38
2023/12/16 10:02:27;;;;;;;11.85;7.07;;;;;;;33.01;66.07;100829.16;4938006;28;69354;-37
2023/12/16 10:04:58;;;;;;;11.75;8.35;;;;;;;33.28;64.44;100853.16;4969176;28;65833;-37
2023/12/16 10:07:29;;;;;;;14.70;11.33;;;;;;;33.23;64.46;100853.03;4964975;28;69788;-38
2023/12/16 10:09:59;;;;;;;16.38;11.18;;;;;;;33.21;66.43;100856.00;4954019;28;65284;-37
2023/12/16 10:12:35;;;;;;;17.63;12.38;;;;;;;33.15;66.69;100844.19;4972103;28;69812;-43
2023/12/16 10:15:06;;;;;;;14.63;11.23;;;;;;;33.31;65.13;100853.50;4966377;28;66091;-39
2023/12/16 10:17:37;;;;;;;18.77;10.60;;;;;;;33.11;66.66;100836.72;4950710;28;69813;-38
2023/12/16 10:20:09;;;;;;;19.35;11.05;;;;;;;33.27;66.12;100870.53;4972154;28;65420;-38
2023/12/16 10:22:40;;;;;;;22.70;11.27;;;;;;;33.22;65.03;100845.94;4972729;28;69606;-38
2023/12/16 10:25:11;;;;;;;17.80;10.98;;;;;;;33.28;65.94;100870.28;4956928;28;66514;-38
2023/12/16 10:27:46;;;;;;;19.38;10.23;;;;;;;33.28;65.70;100869.47;4941201;28;69942;-38
2023/12/16 10:30:16;;;;;;;19.25;10.20;;;;;;;33.25;65.09;100865.31;4951213;28;66086;-38
2023/12/16 10:32:46;;;;;;;25.33;10.05;;;;;;;33.21;63.83;100860.59;4964563;28;69318;-38
2023/12/16 10:35:17;;;;;;;23.58;8.57;;;;;;;33.16;63.79;100864.03;4967768;28;66818;-38
2023/12/16 10:37:49;;;;;;;27.60;8.25;;;;;;;33.12;63.63;100865.56;4967327;28;69676;-38
2023/12/16 10:40:24;;;;;;;25.30;7.20;;;;;;;33.11;63.27;100875.59;4968522;28;66428;-38
2023/12/16 10:42:56;;;;;;;21.48;8.07;;;;;;;33.11;62.80;100878.31;4952966;28;70736;-38
2023/12/16 10:45:26;;;;;;;35.13;7.55;;;;;;;33.12;63.24;100881.84;4967366;28;66421;-40
2023/12/16 10:48:01;;;;;;;25.67;7.15;;;;;;;33.03;63.83;100888.72;4965371;28;70686;-38
2023/12/16 10:50:32;;;;;;;14.60;6.68;;;;;;;33.04;63.69;100883.06;4963248;28;67048;-38
2023/12/16 10:53:07;;;;;;;13.13;6.65;;;;;;;33.03;64.36;100888.72;4967504;28;70738;-38
2023/12/16 10:55:44;;;;;;;14.25;6.63;;;;;;;32.55;65.13;100821.78;4966920;28;66459;-38
2023/12/16 10:58:22;;;;;;;12.63;6.45;;;;;;;32.96;65.01;100877.09;4965696;28;70455;-38
2023/12/16 11:00:56;;;;;;;15.75;6.55;;;;;;;32.99;64.38;100876.63;4967281;28;66115;-39
2023/12/16 11:03:37;;;;;;;7.38;5.78;;;;;;;32.56;65.24;100823.41;4964965;28;70060;-38
2023/12/16 11:06:12;;;;;;;10.85;6.18;;;;;;;32.82;65.47;100882.75;4948485;28;66100;-39
2023/12/16 11:08:44;;;;;;;11.13;5.90;;;;;;;32.90;64.50;100890.56;4965428;28;70776;-39
2023/12/16 11:11:17;;;;;;;5.93;5.25;;;;;;;32.88;65.14;100889.97;4960089;28;65250;-40
2023/12/16 11:13:50;;;;;;;7.72;5.50;;;;;;;32.90;64.71;100896.00;4966356;28;70083;-39
2023/12/16 11:16:29;;;;;;;9.43;4.68;;;;;;;32.88;64.77;100903.56;4946030;28;66257;-39
2023/12/16 11:19:02;;;;;;;8.98;4.93;;;;;;;32.63;64.73;100870.31;4947224;28;69158;-38
2023/12/16 11:21:33;;;;;;;9.93;5.07;;;;;;;32.71;65.15;100892.53;4973031;28;66479;-38
2023/12/16 11:24:06;;;;;;;5.07;4.55;;;;;;;32.83;64.26;100910.75;4973317;28;43741;-38
2023/12/16 11:26:36;;;;;;;5.50;4.47;;;;;;;32.83;64.16;100917.00;4977300;28;66309;-38
2023/12/16 11:29:07;;;;;;;7.18;4.57;;;;;;;32.78;64.44;100919.59;4950195;28;69214;-38